Time;durP1;ratioP1;P1;durP2;ratioP2;P2;SDS_P1;SDS_P2;PMS_P1;PMS_P2;Temp;Humidity;BMP_temperature;BMP_pressure;BME280_temperature;BME280_humidity;BME280_pressure;Samples;Min_cycle;Max_cycle;Signal;HPM_P1;HPM_P2
2024/01/28 00:01:57;;;;;;;0.20;0.20;;;;;;;-140.72;100.00;61752.06;5003863;28;20388;-69
2024/01/28 00:04:22;;;;;;;0.20;0.20;;;;;;;-140.72;100.00;61735.81;5003618;28;20022;-69
2024/01/28 00:06:47;;;;;;;0.20;0.20;;;;;;;-140.72;100.00;61741.91;5014387;28;20476;-69
2024/01/28 00:09:13;;;;;;;0.20;0.20;;;;;;;-140.72;100.00;61676.81;5014519;28;20510;-69
2024/01/28 00:11:39;;;;;;;0.20;0.20;;;;;;;-140.72;100.00;61721.56;5013914;28;20061;-69
2024/01/28 00:14:05;;;;;;;0.20;0.20;;;;;;;-140.72;100.00;61760.22;5007167;28;20077;-70
2024/01/28 00:16:30;;;;;;;0.20;0.20;;;;;;;-140.72;100.00;61735.81;5010516;28;20022;-69
2024/01/28 00:18:58;;;;;;;0.20;0.20;;;;;;;-140.72;100.00;61735.81;5015114;28;20442;-69
2024/01/28 00:21:24;;;;;;;0.20;0.20;;;;;;;-140.72;100.00;61731.72;5002842;28;20361;-69
2024/01/28 00:23:50;;;;;;;0.20;0.20;;;;;;;-140.72;100.00;61743.94;5014929;28;20030;-70
2024/01/28 00:26:15;;;;;;;0.20;0.20;;;;;;;-140.72;100.00;61711.41;5014438;28;20112;-70
2024/01/28 00:28:40;;;;;;;0.20;0.20;;;;;;;-140.72;100.00;61758.19;5005829;28;20032;-69
2024/01/28 00:31:10;;;;;;;0.50;0.50;;;;;;;-140.72;100.00;61794.78;4998243;28;20491;-69
2024/01/28 00:33:35;;;;;;;0.30;0.30;;;;;;;-140.72;100.00;61754.09;4996099;28;20392;-69
2024/01/28 00:36:00;;;;;;;0.20;0.20;;;;;;;-140.72;100.00;61750.03;5008418;28;20037;-70
2024/01/28 00:38:31;;;;;;;0.20;0.20;;;;;;;-140.72;100.00;61784.63;5004308;28;20025;-70
2024/01/28 00:40:56;;;;;;;0.20;0.20;;;;;;;-140.72;100.00;61800.88;5014914;28;20097;-69
2024/01/28 00:43:22;;;;;;;0.20;0.20;;;;;;;-140.72;100.00;61817.16;5024244;28;20053;-70
2024/01/28 00:45:47;;;;;;;0.20;0.20;;;;;;;-140.72;100.00;61778.50;5008625;28;20048;-70
2024/01/28 00:48:13;;;;;;;0.20;0.20;;;;;;;-140.72;100.00;61870.03;5015413;28;20084;-69
2024/01/28 00:50:38;;;;;;;0.20;0.20;;;;;;;-140.72;100.00;61918.84;5006097;28;20025;-70
2024/01/28 00:53:04;;;;;;;0.20;0.20;;;;;;;-140.72;100.00;61937.16;5017864;28;20105;-69
2024/01/28 00:55:31;;;;;;;0.20;0.20;;;;;;;-140.72;100.00;61931.06;5002217;28;20058;-69
2024/01/28 00:57:56;;;;;;;0.20;0.20;;;;;;;-140.72;100.00;61961.56;5015079;28;20041;-69
2024/01/28 01:00:22;;;;;;;0.20;0.20;;;;;;;-140.72;100.00;62010.38;5014827;28;20034;-70
2024/01/28 01:02:47;;;;;;;0.20;0.20;;;;;;;-140.72;100.00;62036.84;5024171;28;20112;-70
2024/01/28 01:05:12;;;;;;;0.20;0.20;;;;;;;-140.72;100.00;62059.22;5024284;28;20385;-70
2024/01/28 01:07:38;;;;;;;0.20;0.20;;;;;;;-140.72;100.00;62106.00;5005766;28;20046;-70
2024/01/28 01:10:04;;;;;;;0.20;0.20;;;;;;;-140.72;100.00;62118.19;5007788;28;20097;-69
2024/01/28 01:12:29;;;;;;;0.20;0.20;;;;;;;-140.72;100.00;62160.91;5013556;28;20133;-69
2024/01/28 01:14:55;;;;;;;0.20;0.20;;;;;;;-140.72;100.00;62164.97;5000057;28;20105;-69
2024/01/28 01:17:20;;;;;;;0.20;0.20;;;;;;;-140.72;100.00;62193.47;5006334;28;20042;-69
2024/01/28 01:19:45;;;;;;;0.20;0.20;;;;;;;-140.72;100.00;62199.56;5007559;28;20375;-70
2024/01/28 01:22:11;;;;;;;0.20;0.20;;;;;;;-140.72;100.00;62266.69;5013421;28;20037;-69
2024/01/28 01:24:36;;;;;;;0.20;0.20;;;;;;;-140.72;100.00;62289.06;5020315;28;20059;-69
2024/01/28 01:27:02;;;;;;;0.20;0.20;;;;;;;-140.72;100.00;62319.56;5021058;28;20018;-69
2024/01/28 01:29:27;;;;;;;0.20;0.20;;;;;;;-140.72;100.00;62346.03;4994970;28;20165;-69
2024/01/28 01:31:54;;;;;;;0.25;0.25;;;;;;;-140.72;100.00;62343.97;5003350;28;20469;-69
2024/01/28 01:34:20;;;;;;;0.20;0.20;;;;;;;-140.72;100.00;62370.44;5001823;28;20037;-69
2024/01/28 01:36:45;;;;;;;0.20;0.20;;;;;;;-140.72;100.00;62370.44;5011971;28;20018;-69
2024/01/28 01:39:11;;;;;;;0.30;0.30;;;;;;;-140.72;100.00;62423.31;4996916;28;20105;-69
2024/01/28 01:41:36;;;;;;;0.20;0.20;;;;;;;-140.72;100.00;62451.81;5019050;28;20022;-69
2024/01/28 01:44:01;;;;;;;0.20;0.20;;;;;;;-140.72;100.00;62492.47;4999182;28;20106;-69
2024/01/28 01:46:29;;;;;;;0.20;0.20;;;;;;;-140.72;100.00;62494.53;5009627;28;20049;-69
2024/01/28 01:48:55;;;;;;;0.20;0.20;;;;;;;-140.72;100.00;62579.97;5005370;28;20030;-70
2024/01/28 01:51:23;;;;;;;0.20;0.20;;;;;;;-140.72;100.00;62586.06;5009325;28;20333;-71
2024/01/28 01:53:49;;;;;;;0.20;0.20;;;;;;;-140.72;100.00;62657.25;5012211;28;20037;-70
2024/01/28 01:56:15;;;;;;;0.20;0.20;;;;;;;-140.72;100.00;62671.50;5024289;28;20033;-69
2024/01/28 01:58:42;;;;;;;0.20;0.20;;;;;;;-140.72;100.00;62685.75;5000913;28;20034;-69
2024/01/28 02:01:08;;;;;;;0.20;0.20;;;;;;;-140.72;100.00;62765.09;5001481;28;20034;-69
2024/01/28 02:03:33;;;;;;;0.20;0.20;;;;;;;-140.72;100.00;62756.94;5004600;28;20448;-69
2024/01/28 02:05:58;;;;;;;0.30;0.30;;;;;;;-140.72;100.00;62815.94;5016077;28;20032;-69
2024/01/28 02:08:24;;;;;;;0.20;0.20;;;;;;;-140.72;100.00;62862.75;5010314;28;20032;-70
2024/01/28 02:10:50;;;;;;;0.20;0.20;;;;;;;-140.72;100.00;62903.44;4999236;28;20037;-70
2024/01/28 02:13:16;;;;;;;0.20;0.20;;;;;;;-140.72;100.00;62954.28;4999214;28;20427;-70
2024/01/28 02:15:41;;;;;;;0.20;0.20;;;;;;;-140.72;100.00;62958.38;5002360;28;20096;-70
2024/01/28 02:18:07;;;;;;;0.20;0.20;;;;;;;-140.72;100.00;62992.94;5022029;28;20491;-69
2024/01/28 02:20:32;;;;;;;0.20;0.20;;;;;;;-140.72;100.00;63029.56;5011945;28;20030;-70
2024/01/28 02:22:57;;;;;;;0.20;0.20;;;;;;;-140.72;100.00;63054.00;5014125;28;20109;-70
2024/01/28 02:25:23;;;;;;;0.20;0.20;;;;;;;-140.72;100.00;63021.44;5005502;28;20052;-70
2024/01/28 02:27:48;;;;;;;0.20;0.20;;;;;;;-140.72;100.00;63110.97;5006524;28;20065;-69
2024/01/28 02:30:15;;;;;;;0.20;0.20;;;;;;;-140.72;100.00;63102.81;5022189;28;20057;-70
2024/01/28 02:32:51;;;;;;;0.20;0.20;;;;;;;-140.72;100.00;63119.09;5014495;28;20072;-69
2024/01/28 02:35:17;;;;;;;0.10;0.10;;;;;;;-140.72;100.00;63172.00;5000419;28;21508;-70
2024/01/28 02:37:42;;;;;;;0.20;0.20;;;;;;;-140.72;100.00;63190.31;5014455;28;20064;-71
2024/01/28 02:40:08;;;;;;;0.20;0.20;;;;;;;-140.72;100.00;63222.88;5008435;28;20508;-70
2024/01/28 02:42:34;;;;;;;0.20;0.20;;;;;;;-140.72;100.00;63228.97;5008753;28;20518;-69
2024/01/28 02:44:59;;;;;;;0.20;0.20;;;;;;;-140.72;100.00;63245.25;5017805;28;20104;-69
2024/01/28 02:47:25;;;;;;;0.20;0.20;;;;;;;-140.72;100.00;63290.00;4999872;28;20026;-69
2024/01/28 02:49:50;;;;;;;0.20;0.20;;;;;;;-140.72;100.00;63287.97;5010172;28;20220;-69
2024/01/28 02:52:15;;;;;;;0.30;0.30;;;;;;;-140.72;100.00;63294.06;4994403;28;20447;-69
2024/01/28 02:54:40;;;;;;;0.20;0.20;;;;;;;-140.72;100.00;63279.84;5004346;28;20515;-70
2024/01/28 02:57:06;;;;;;;0.20;0.20;;;;;;;-140.72;100.00;63334.78;5010949;28;20018;-69
2024/01/28 02:59:31;;;;;;;0.20;0.20;;;;;;;-140.72;100.00;63373.44;5010930;28;20097;-70
2024/01/28 03:01:57;;;;;;;0.20;0.20;;;;;;;-140.72;100.00;63405.97;5022209;28;20424;-70
2024/01/28 03:04:22;;;;;;;0.20;0.20;;;;;;;-140.72;100.00;63430.41;4999140;28;20022;-69
2024/01/28 03:06:47;;;;;;;0.20;0.20;;;;;;;-140.72;100.00;63456.84;5011143;28;20025;-69
2024/01/28 03:09:13;;;;;;;0.20;0.20;;;;;;;-140.72;100.00;63460.94;5010564;28;20527;-69
2024/01/28 03:11:39;;;;;;;0.20;0.20;;;;;;;-140.72;100.00;63536.22;5008376;28;20033;-69
2024/01/28 03:14:06;;;;;;;0.20;0.20;;;;;;;-140.72;100.00;63509.75;5006531;28;20121;-69
2024/01/28 03:16:32;;;;;;;0.20;0.20;;;;;;;-140.72;100.00;63517.91;5050463;28;20113;-69
2024/01/28 03:18:58;;;;;;;0.20;0.20;;;;;;;-140.72;100.00;63538.25;5011242;28;20356;-69
2024/01/28 03:21:23;;;;;;;0.20;0.20;;;;;;;-140.72;100.00;63548.41;5003593;28;20035;-70
2024/01/28 03:23:48;;;;;;;0.20;0.20;;;;;;;-140.72;100.00;63570.81;5008825;28;20026;-70
2024/01/28 03:26:14;;;;;;;0.20;0.20;;;;;;;-140.72;100.00;63566.72;5002015;28;20033;-70
2024/01/28 03:28:40;;;;;;;0.20;0.20;;;;;;;-140.72;100.00;63554.53;5018773;28;20021;-69
2024/01/28 03:31:05;;;;;;;0.30;0.30;;;;;;;-140.72;100.00;63574.88;5014514;28;20057;-70
2024/01/28 03:33:31;;;;;;;0.20;0.20;;;;;;;-140.72;100.00;63578.94;5013308;28;20108;-70
2024/01/28 03:35:56;;;;;;;0.30;0.30;;;;;;;-140.72;100.00;63605.41;5013134;28;20022;-69
2024/01/28 03:38:22;;;;;;;0.20;0.20;;;;;;;-140.72;100.00;63646.09;5014196;28;20515;-70
2024/01/28 03:40:47;;;;;;;0.20;0.20;;;;;;;-140.72;100.00;63629.81;5013721;28;20026;-70
2024/01/28 03:43:13;;;;;;;0.20;0.20;;;;;;;-140.72;100.00;63633.88;5017178;28;20430;-69
2024/01/28 03:45:38;;;;;;;0.30;0.30;;;;;;;-140.72;100.00;63605.41;5014212;28;20071;-70
2024/01/28 03:48:04;;;;;;;0.20;0.20;;;;;;;-140.72;100.00;63676.63;5014521;28;20030;-69
2024/01/28 03:50:30;;;;;;;0.20;0.20;;;;;;;-140.72;100.00;63694.94;5014933;28;20368;-70
2024/01/28 03:52:55;;;;;;;0.25;0.25;;;;;;;-140.72;100.00;63627.78;4996170;28;20030;-69
2024/01/28 03:55:20;;;;;;;0.20;0.20;;;;;;;-140.72;100.00;63650.16;4996889;28;20033;-69
2024/01/28 03:57:46;;;;;;;0.30;0.30;;;;;;;-140.72;100.00;63617.59;5011922;28;20033;-69
2024/01/28 04:00:12;;;;;;;0.20;0.20;;;;;;;-140.72;100.00;63599.28;5005418;28;20480;-69
2024/01/28 04:02:38;;;;;;;0.20;0.20;;;;;;;-140.72;100.00;63652.19;5008756;28;20070;-69
2024/01/28 04:05:04;;;;;;;0.20;0.20;;;;;;;-140.72;100.00;63633.88;4998408;28;20030;-69
2024/01/28 04:07:29;;;;;;;0.28;0.28;;;;;;;-140.72;100.00;63576.91;5004334;28;20022;-69
2024/01/28 04:09:55;;;;;;;0.20;0.20;;;;;;;-140.72;100.00;63615.56;5016027;28;20106;-69
2024/01/28 04:12:20;;;;;;;0.20;0.20;;;;;;;-140.72;100.00;63621.69;5018562;28;20052;-69
2024/01/28 04:14:45;;;;;;;0.20;0.20;;;;;;;-140.72;100.00;63542.31;5024239;28;20026;-69
2024/01/28 04:17:11;;;;;;;0.20;0.20;;;;;;;-140.72;100.00;63585.03;5019267;28;20028;-69
2024/01/28 04:19:36;;;;;;;0.38;0.38;;;;;;;-140.72;100.00;63566.72;5016924;28;20123;-69
2024/01/28 04:22:01;;;;;;;0.20;0.20;;;;;;;-140.72;100.00;63595.22;5013629;28;20072;-69
2024/01/28 04:24:27;;;;;;;0.20;0.20;;;;;;;-140.72;100.00;63513.81;4999689;28;20084;-69
2024/01/28 04:26:53;;;;;;;0.20;0.20;;;;;;;-140.72;100.00;63570.81;5012775;28;20447;-69
2024/01/28 04:29:19;;;;;;;1.38;0.63;;;;;;;-140.72;100.00;63519.94;5010185;28;20028;-69
2024/01/28 04:31:44;;;;;;;0.20;0.20;;;;;;;-140.72;100.00;63489.41;5011274;28;20042;-69
2024/01/28 04:34:10;;;;;;;0.30;0.30;;;;;;;-140.72;100.00;63491.44;5006278;28;20484;-69
2024/01/28 04:36:36;;;;;;;0.20;0.20;;;;;;;-140.72;100.00;63485.34;5011860;28;20036;-69
2024/01/28 04:39:02;;;;;;;0.20;0.20;;;;;;;-140.72;100.00;63410.06;5008074;28;20033;-69
2024/01/28 04:41:28;;;;;;;0.20;0.20;;;;;;;-140.72;100.00;63346.97;5011753;28;20057;-69
2024/01/28 04:43:53;;;;;;;0.20;0.20;;;;;;;-140.72;100.00;63373.44;5000844;28;20117;-69
2024/01/28 04:46:18;;;;;;;0.20;0.20;;;;;;;-140.72;100.00;63328.66;5043038;28;20034;-69
2024/01/28 04:48:44;;;;;;;0.30;0.30;;;;;;;-140.72;100.00;63273.72;5008964;28;20034;-69
2024/01/28 04:51:10;;;;;;;0.20;0.20;;;;;;;-140.72;100.00;63277.78;5006085;28;20455;-69
2024/01/28 04:53:35;;;;;;;0.20;0.20;;;;;;;-140.72;100.00;63165.88;5009802;28;20705;-70
2024/01/28 04:56:01;;;;;;;0.20;0.20;;;;;;;-140.72;100.00;63133.34;5005435;28;20097;-69
2024/01/28 04:58:26;;;;;;;0.20;0.20;;;;;;;-140.72;100.00;63062.13;4996516;28;20022;-69
2024/01/28 05:00:51;;;;;;;0.20;0.20;;;;;;;-140.72;100.00;63041.78;5006185;28;20037;-69
2024/01/28 05:03:17;;;;;;;0.20;0.20;;;;;;;-140.72;100.00;62999.06;5013007;28;20030;-70
2024/01/28 05:05:42;;;;;;;0.20;0.20;;;;;;;-140.72;100.00;62960.41;5017413;28;20091;-69
2024/01/28 05:08:07;;;;;;;0.20;0.20;;;;;;;-140.72;100.00;62842.41;5015359;28;20423;-69
2024/01/28 05:10:33;;;;;;;0.20;0.20;;;;;;;-140.72;100.00;62838.31;5013959;28;20022;-69
2024/01/28 05:12:58;;;;;;;0.20;0.20;;;;;;;-140.72;100.00;62834.25;5013282;28;20141;-70
2024/01/28 05:15:23;;;;;;;0.20;0.20;;;;;;;-140.72;100.00;62746.78;5002720;28;20112;-69
2024/01/28 05:17:50;;;;;;;0.20;0.20;;;;;;;-140.72;100.00;62720.34;4994918;28;20023;-69
2024/01/28 05:20:16;;;;;;;0.20;0.20;;;;;;;-140.72;100.00;62706.09;5000199;28;20037;-69
2024/01/28 05:22:42;;;;;;;0.20;0.20;;;;;;;-140.72;100.00;62702.03;5003167;28;20514;-70
2024/01/28 05:25:09;;;;;;;0.30;0.30;;;;;;;-140.72;100.00;62673.53;4994392;28;20137;-70
2024/01/28 05:27:36;;;;;;;0.20;0.20;;;;;;;-140.72;100.00;62643.03;5007325;28;20077;-69
2024/01/28 05:30:01;;;;;;;0.30;0.30;;;;;;;-140.72;100.00;62608.44;5002817;28;20057;-69
2024/01/28 05:32:27;;;;;;;0.20;0.20;;;;;;;-140.72;100.00;62606.41;5009974;28;20037;-69
2024/01/28 05:34:52;;;;;;;0.20;0.20;;;;;;;-140.72;100.00;62571.81;5005806;28;20113;-69
2024/01/28 05:37:17;;;;;;;0.30;0.30;;;;;;;-140.72;100.00;62590.13;5005651;28;20029;-69
2024/01/28 05:39:44;;;;;;;0.20;0.20;;;;;;;-140.72;100.00;62590.13;5010100;28;20069;-69
2024/01/28 05:42:09;;;;;;;0.20;0.20;;;;;;;-140.72;100.00;62592.16;4999512;28;20034;-69
2024/01/28 05:44:34;;;;;;;0.20;0.20;;;;;;;-140.72;100.00;62577.94;5007585;28;20042;-69
2024/01/28 05:46:59;;;;;;;0.20;0.20;;;;;;;-140.72;100.00;62577.94;5012526;28;20463;-69
2024/01/28 05:49:25;;;;;;;0.20;0.20;;;;;;;-140.72;100.00;62549.44;5003019;28;20041;-70
2024/01/28 05:51:50;;;;;;;0.20;0.20;;;;;;;-140.72;100.00;62549.44;4997716;28;20022;-69
2024/01/28 05:54:16;;;;;;;0.20;0.20;;;;;;;-140.72;100.00;62531.13;5002486;28;20105;-71
2024/01/28 05:56:42;;;;;;;0.68;0.68;;;;;;;-140.72;100.00;62539.28;5019140;28;20053;-71
2024/01/28 05:59:07;;;;;;;0.20;0.20;;;;;;;-140.72;100.00;62533.16;5015149;28;20030;-70
2024/01/28 06:01:32;;;;;;;0.30;0.30;;;;;;;-140.72;100.00;62541.31;5009888;28;20022;-70
2024/01/28 06:03:58;;;;;;;0.20;0.20;;;;;;;-140.72;100.00;62502.66;5018236;28;20083;-69
2024/01/28 06:06:23;;;;;;;0.38;0.38;;;;;;;-140.72;100.00;62492.47;5014793;28;20099;-70
2024/01/28 06:08:48;;;;;;;0.20;0.20;;;;;;;-140.72;100.00;62490.44;5013894;28;20029;-72
2024/01/28 06:11:14;;;;;;;0.63;0.40;;;;;;;-140.72;100.00;62433.50;5005961;28;20034;-70
2024/01/28 06:13:51;;;;;;;0.38;0.38;;;;;;;-140.72;100.00;62423.31;5004387;28;20048;-69
2024/01/28 06:16:17;;;;;;;0.20;0.20;;;;;;;-140.72;100.00;62409.09;5009117;28;20085;-69
2024/01/28 06:18:43;;;;;;;0.20;0.20;;;;;;;-140.72;100.00;62417.22;5016045;28;20424;-70
2024/01/28 06:21:13;;;;;;;0.20;0.20;;;;;;;-140.72;100.00;62358.22;5001611;28;20062;-69
2024/01/28 06:23:38;;;;;;;;;;;;;;;-140.72;100.00;62333.81;5011376;28;20065;-70
2024/01/28 06:26:24;;;;;;;0.20;0.20;;;;;;;-140.72;100.00;62266.69;5012565;28;20342;-70
2024/01/28 06:28:50;;;;;;;0.20;0.20;;;;;;;-140.72;100.00;62211.75;5011162;28;20042;-70
2024/01/28 06:31:15;;;;;;;0.20;0.20;;;;;;;-140.72;100.00;62187.34;5006696;28;20095;-69
2024/01/28 06:33:41;;;;;;;0.30;0.30;;;;;;;-140.72;100.00;62175.16;5010066;28;20030;-70
2024/01/28 06:36:27;;;;;;;1.05;0.85;;;;;;;-140.72;100.00;62142.59;4999845;28;20070;-70
2024/01/28 06:39:02;;;;;;;0.38;0.38;;;;;;;-140.72;100.00;62091.75;4999472;28;20097;-72
2024/01/28 06:41:28;;;;;;;0.40;0.40;;;;;;;-140.72;100.00;62067.34;5001298;28;20412;-73
2024/01/28 06:43:53;;;;;;;0.25;0.25;;;;;;;-140.72;100.00;62016.50;5038287;28;20032;-72
2024/01/28 06:46:19;;;;;;;1.85;1.75;;;;;;;-140.72;100.00;61865.97;5012313;28;20029;-72
2024/01/28 06:48:45;;;;;;;1.50;0.63;;;;;;;-140.72;100.00;61859.88;5015770;28;20025;-72
2024/01/28 06:51:16;;;;;;;0.20;0.20;;;;;;;-140.72;100.00;61756.13;5000255;28;20034;-72
2024/01/28 06:53:41;;;;;;;0.55;0.55;;;;;;;-140.72;100.00;61682.91;5001472;28;20022;-71
2024/01/28 06:56:07;;;;;;;0.77;0.77;;;;;;;-140.72;100.00;61648.34;5015606;28;20108;-72
2024/01/28 06:58:32;;;;;;;0.20;0.20;;;;;;;-140.72;100.00;61562.91;5007276;28;20045;-71
2024/01/28 07:00:57;;;;;;;0.20;0.20;;;;;;;-140.72;100.00;61518.19;5023387;28;20032;-71
2024/01/28 07:03:23;;;;;;;0.40;0.40;;;;;;;-140.72;100.00;61402.25;4999934;28;20033;-72
2024/01/28 07:05:48;;;;;;;0.82;0.82;;;;;;;-140.72;100.00;61365.66;4995298;28;20057;-72
2024/01/28 07:08:13;;;;;;;16.83;15.63;;;;;;;-140.72;100.00;61320.91;4999188;28;20040;-72
2024/01/28 07:10:39;;;;;;;1.27;1.17;;;;;;;-140.72;100.00;61205.00;5003518;28;20038;-71
2024/01/28 07:13:04;;;;;;;0.45;0.45;;;;;;;-140.72;100.00;61188.72;5004509;28;20085;-73
2024/01/28 07:15:31;;;;;;;0.20;0.20;;;;;;;-140.72;100.00;61115.50;5007687;28;20042;-72
2024/01/28 07:17:56;;;;;;;0.20;0.20;;;;;;;-140.72;100.00;61024.00;5011702;28;20095;-70
2024/01/28 07:20:21;;;;;;;0.20;0.20;;;;;;;-140.72;100.00;60950.78;5009552;28;20440;-70
2024/01/28 07:22:47;;;;;;;0.20;0.20;;;;;;;-140.72;100.00;60893.84;5004000;28;20026;-70
2024/01/28 07:25:13;;;;;;;0.20;0.20;;;;;;;-140.72;100.00;60838.94;5002442;28;20387;-71
2024/01/28 07:27:39;;;;;;;0.22;0.22;;;;;;;-140.72;100.00;60759.66;5004256;28;20038;-69
2024/01/28 07:30:06;;;;;;;0.20;0.20;;;;;;;-140.72;100.00;60657.97;5010025;28;20034;-68
2024/01/28 07:32:31;;;;;;;0.20;0.20;;;;;;;-140.72;100.00;60674.25;5002419;28;20130;-69
2024/01/28 07:34:56;;;;;;;0.20;0.20;;;;;;;-140.72;100.00;60601.03;5006316;28;20113;-70
2024/01/28 07:37:22;;;;;;;0.20;0.20;;;;;;;-140.72;100.00;60568.50;5016500;28;20181;-69
2024/01/28 07:39:47;;;;;;;0.20;0.20;;;;;;;-140.72;100.00;60531.91;5038181;28;20096;-70
2024/01/28 07:42:12;;;;;;;0.20;0.20;;;;;;;-140.72;100.00;60507.50;5017562;28;20053;-70
2024/01/28 07:44:37;;;;;;;0.20;0.20;;;;;;;-140.72;100.00;60430.25;5004702;28;20465;-70
2024/01/28 07:47:04;;;;;;;0.20;0.20;;;;;;;-140.72;100.00;60466.84;5011831;28;20053;-70
2024/01/28 07:49:30;;;;;;;0.20;0.20;;;;;;;-140.72;100.00;60413.97;5010082;28;20112;-70
2024/01/28 07:51:55;;;;;;;0.35;0.35;;;;;;;-140.72;100.00;60450.59;5008665;28;20484;-70
2024/01/28 07:54:20;;;;;;;0.20;0.20;;;;;;;-140.72;100.00;60403.81;5021914;28;20064;-71
2024/01/28 07:56:46;;;;;;;0.20;0.20;;;;;;;-140.72;100.00;60418.06;5011609;28;20022;-71
2024/01/28 07:59:11;;;;;;;0.20;0.20;;;;;;;-140.72;100.00;60448.56;5009811;28;20029;-72
2024/01/28 08:01:37;;;;;;;0.20;0.20;;;;;;;-140.72;100.00;60409.91;4998723;28;20061;-72
2024/01/28 08:04:02;;;;;;;0.20;0.20;;;;;;;-140.72;100.00;60483.13;5009520;28;20022;-72
2024/01/28 08:06:27;;;;;;;0.20;0.20;;;;;;;-140.72;100.00;60448.56;5010110;28;20034;-72
2024/01/28 08:08:53;;;;;;;0.22;0.22;;;;;;;-140.72;100.00;60483.13;5010630;28;20115;-72
2024/01/28 08:11:18;;;;;;;0.30;0.30;;;;;;;-140.72;100.00;60511.59;5007649;28;20034;-72
2024/01/28 08:13:44;;;;;;;0.30;0.30;;;;;;;-140.72;100.00;60538.00;5010767;28;20193;-71
2024/01/28 08:16:09;;;;;;;0.20;0.20;;;;;;;-140.72;100.00;60538.00;5009532;28;20045;-77
2024/01/28 08:18:34;;;;;;;0.20;0.20;;;;;;;-140.72;100.00;60495.31;5011828;28;20404;-75
2024/01/28 08:21:00;;;;;;;0.20;0.20;;;;;;;-140.72;100.00;60479.06;5012609;28;20026;-72
2024/01/28 08:23:26;;;;;;;0.20;0.20;;;;;;;-140.72;100.00;60422.13;5013719;28;20041;-72
2024/01/28 08:25:52;;;;;;;0.20;0.20;;;;;;;-140.72;100.00;60401.78;5018023;28;20049;-72
2024/01/28 08:28:18;;;;;;;0.20;0.20;;;;;;;-140.72;100.00;60369.25;5017251;28;20118;-71
2024/01/28 08:30:44;;;;;;;0.93;0.93;;;;;;;-140.72;100.00;60332.66;5013404;28;20539;-71
2024/01/28 08:33:10;;;;;;;0.20;0.20;;;;;;;-140.72;100.00;60304.19;5020024;28;20018;-79
2024/01/28 08:35:37;;;;;;;0.20;0.20;;;;;;;-140.72;100.00;60265.56;5008537;28;20409;-70
2024/01/28 08:38:03;;;;;;;0.20;0.20;;;;;;;-140.72;100.00;60255.41;5011955;28;20083;-70
2024/01/28 08:40:28;;;;;;;0.30;0.30;;;;;;;-140.72;100.00;60283.88;5024996;28;20407;-70
2024/01/28 08:42:53;;;;;;;0.20;0.20;;;;;;;-140.72;100.00;60233.03;5007794;28;20034;-70
2024/01/28 08:45:19;;;;;;;0.20;0.20;;;;;;;-140.72;100.00;60206.59;5015582;28;20100;-70
2024/01/28 08:47:45;;;;;;;0.20;0.20;;;;;;;-140.72;100.00;60194.41;5025058;28;20037;-70
2024/01/28 08:50:10;;;;;;;0.20;0.20;;;;;;;-140.72;100.00;60218.81;5020156;28;20072;-71
2024/01/28 08:52:36;;;;;;;0.20;0.20;;;;;;;-140.72;100.00;60263.53;5013245;28;20034;-70
2024/01/28 08:55:01;;;;;;;0.20;0.20;;;;;;;-140.72;100.00;60239.13;5024038;28;20529;-71
2024/01/28 08:57:26;;;;;;;0.28;0.28;;;;;;;-140.72;100.00;60257.44;5017825;28;20776;-72
2024/01/28 08:59:52;;;;;;;0.20;0.20;;;;;;;-140.72;100.00;60253.38;5014507;28;20124;-71
2024/01/28 09:02:17;;;;;;;0.20;0.20;;;;;;;-140.72;100.00;60275.72;5017732;28;20176;-70
2024/01/28 09:04:43;;;;;;;0.20;0.20;;;;;;;-140.72;100.00;60292.00;5013154;28;20720;-72
2024/01/28 09:07:08;;;;;;;0.20;0.20;;;;;;;-140.72;100.00;60296.06;5013735;28;20092;-71
2024/01/28 09:09:34;;;;;;;0.20;0.20;;;;;;;-140.72;100.00;60289.97;5015352;28;20034;-71
2024/01/28 09:11:59;;;;;;;0.20;0.20;;;;;;;-140.72;100.00;60308.25;5013938;28;20468;-70
2024/01/28 09:14:26;;;;;;;0.20;0.20;;;;;;;-140.72;100.00;60267.59;5021080;28;20029;-78
2024/01/28 09:16:51;;;;;;;0.20;0.20;;;;;;;-140.72;100.00;60245.22;5012874;28;20085;-69
2024/01/28 09:19:16;;;;;;;0.20;0.20;;;;;;;-140.72;100.00;60255.41;5013574;28;20022;-70
2024/01/28 09:21:42;;;;;;;0.20;0.20;;;;;;;-140.72;100.00;60239.13;5013937;28;20038;-69
2024/01/28 09:24:07;;;;;;;0.20;0.20;;;;;;;-140.72;100.00;60226.94;5030233;28;20025;-68
2024/01/28 09:26:32;;;;;;;3.70;1.10;;;;;;;-140.72;100.00;60202.53;5024040;28;20037;-68
2024/01/28 09:28:58;;;;;;;0.20;0.20;;;;;;;-140.72;100.00;60186.28;5005811;28;20432;-69
2024/01/28 09:31:23;;;;;;;0.20;0.20;;;;;;;-140.72;100.00;60092.75;5005211;28;20030;-69
2024/01/28 09:33:48;;;;;;;0.20;0.20;;;;;;;-140.72;100.00;60043.97;5003401;28;20057;-69
2024/01/28 09:36:14;;;;;;;0.20;0.20;;;;;;;-140.72;100.00;59974.84;5013183;28;20080;-68
2024/01/28 09:38:40;;;;;;;0.20;0.20;;;;;;;-140.72;100.00;59928.06;5009584;28;20132;-69
2024/01/28 09:41:38;;;;;;;0.10;0.10;;;;;;;-140.72;100.00;59867.09;5010444;28;20369;-69
2024/01/28 09:44:03;;;;;;;0.20;0.20;;;;;;;-140.72;100.00;59773.56;5016763;28;20039;-68
2024/01/28 09:46:30;;;;;;;0.20;0.20;;;;;;;-140.72;100.00;59741.03;5010869;28;20033;-68
2024/01/28 09:48:56;;;;;;;0.20;0.20;;;;;;;-140.72;100.00;59655.66;5008766;28;20033;-68
2024/01/28 09:51:23;;;;;;;0.20;0.20;;;;;;;-140.72;100.00;59519.47;5008584;28;20109;-70
2024/01/28 09:53:48;;;;;;;0.20;0.20;;;;;;;-140.72;100.00;59344.66;4997483;28;20048;-70
2024/01/28 09:56:16;;;;;;;0.20;0.20;;;;;;;-140.72;100.00;59121.06;5009934;28;20026;-69
2024/01/28 09:58:42;;;;;;;5.57;4.97;;;;;;;-140.72;100.00;58934.06;5011418;28;20102;-70
2024/01/28 10:01:10;;;;;;;0.22;0.20;;;;;;;-140.72;100.00;58665.78;5011420;28;20103;-69
2024/01/28 10:03:35;;;;;;;0.30;0.30;;;;;;;-140.72;100.00;58419.91;5001055;28;20033;-70
2024/01/28 10:06:01;;;;;;;0.10;0.10;;;;;;;-140.72;100.00;58247.16;5008214;28;20087;-71
2024/01/28 10:08:27;;;;;;;0.10;0.10;;;;;;;-140.72;100.00;58005.34;5002858;28;20127;-70
2024/01/28 10:10:55;;;;;;;0.10;0.10;;;;;;;-140.72;100.00;57926.09;5011770;28;20070;-70
2024/01/28 10:13:21;;;;;;;0.13;0.13;;;;;;;-140.72;100.00;57759.47;5011493;28;20395;-71
2024/01/28 10:15:56;;;;;;;0.10;0.10;;;;;;;-140.72;100.00;57718.84;5018311;28;20037;-70
2024/01/28 10:18:23;;;;;;;0.10;0.10;;;;;;;-140.72;100.00;57613.19;5020480;28;20084;-70
2024/01/28 10:20:48;;;;;;;0.10;0.10;;;;;;;-140.72;100.00;57576.63;5014196;28;20018;-72
2024/01/28 10:23:14;;;;;;;1.10;1.08;;;;;;;-140.72;100.00;57533.94;5017916;28;20072;-74
2024/01/28 10:25:40;;;;;;;0.10;0.10;;;;;;;-140.72;100.00;57586.78;5014259;28;20395;-70
2024/01/28 10:28:06;;;;;;;0.20;0.20;;;;;;;-140.72;100.00;57458.78;5014112;28;20033;-70
2024/01/28 10:30:33;;;;;;;0.35;0.30;;;;;;;-140.72;100.00;57371.41;5000574;28;20026;-69
2024/01/28 10:32:59;;;;;;;0.20;0.20;;;;;;;-140.72;100.00;57302.34;5007509;28;20053;-69
2024/01/28 10:35:25;;;;;;;0.10;0.10;;;;;;;-140.72;100.00;57259.66;5009858;28;20364;-69
2024/01/28 10:37:55;;;;;;;0.10;0.10;;;;;;;-140.72;100.00;57133.72;5017041;28;20041;-69
2024/01/28 10:40:23;;;;;;;0.10;0.10;;;;;;;-140.72;100.00;57158.09;5018594;28;20045;-69
2024/01/28 10:42:52;;;;;;;0.10;0.10;;;;;;;-140.72;100.00;57145.91;5007756;28;20041;-69
2024/01/28 10:45:19;;;;;;;0.20;0.20;;;;;;;-140.72;100.00;57125.59;5010286;28;20033;-70
2024/01/28 10:47:51;;;;;;;0.22;0.22;;;;;;;-140.72;100.00;57117.47;5013311;28;20498;-70
2024/01/28 10:50:18;;;;;;;0.20;0.20;;;;;;;-140.72;100.00;56930.56;5012232;28;20099;-71
2024/01/28 10:52:44;;;;;;;0.10;0.10;;;;;;;-140.72;100.00;56881.81;5014425;28;20044;-73
2024/01/28 10:55:10;;;;;;;0.10;0.10;;;;;;;-140.72;100.00;56792.44;5005877;28;20115;-73
2024/01/28 10:57:39;;;;;;;0.40;0.40;;;;;;;-140.72;100.00;56780.25;5010541;28;20121;-69
2024/01/28 11:00:06;;;;;;;0.10;0.10;;;;;;;-140.72;100.00;56684.78;5010265;28;20030;-71
2024/01/28 11:02:33;;;;;;;0.15;0.15;;;;;;;-140.72;100.00;56674.63;5003492;28;20065;-70
2024/01/28 11:04:59;;;;;;;0.20;0.20;;;;;;;-140.72;100.00;56617.72;5010259;28;20496;-70